createdAt,value
2022-11-09T00:01:40.467Z,1.58
2022-11-09T00:04:07.546Z,1.50
2022-11-09T00:06:35.115Z,1.65
2022-11-09T00:09:07.401Z,1.58
2022-11-09T00:11:34.442Z,1.73
2022-11-09T00:14:00.842Z,1.42
2022-11-09T00:16:27.358Z,1.77
2022-11-09T00:18:53.897Z,1.70
2022-11-09T00:21:23.261Z,1.45
2022-11-09T00:23:50.151Z,1.90
2022-11-09T00:26:18.419Z,1.55
2022-11-09T00:28:44.861Z,1.45
2022-11-09T00:31:14.210Z,1.38
2022-11-09T00:33:40.989Z,1.30
2022-11-09T00:36:12.779Z,1.40
2022-11-09T00:38:40.587Z,1.50
2022-11-09T00:41:09.518Z,1.65
2022-11-09T00:43:36.725Z,1.50
2022-11-09T00:46:03.538Z,1.48
2022-11-09T00:48:30.380Z,1.75
2022-11-09T00:50:57.850Z,1.40
2022-11-09T00:53:24.918Z,1.33
2022-11-09T00:56:08.888Z,1.48
2022-11-09T00:58:37.604Z,1.30
2022-11-09T01:01:11.401Z,1.58
2022-11-09T01:03:38.766Z,1.58
2022-11-09T01:06:06.093Z,1.38
2022-11-09T01:08:33.763Z,1.30
2022-11-09T01:11:08.889Z,1.52
2022-11-09T01:13:36.605Z,1.40
2022-11-09T01:16:11.922Z,1.30
2022-11-09T01:18:39.148Z,1.38
2022-11-09T01:21:07.108Z,1.38
2022-11-09T01:23:34.119Z,1.50
2022-11-09T01:26:02.961Z,1.27
2022-11-09T01:28:29.583Z,1.50
2022-11-09T01:31:00.686Z,1.75
2022-11-09T01:33:27.094Z,1.52
2022-11-09T01:35:53.541Z,1.60
2022-11-09T01:38:20.090Z,1.58
2022-11-09T01:40:46.498Z,1.33
2022-11-09T01:43:19.263Z,1.55
2022-11-09T01:45:50.424Z,1.20
2022-11-09T01:48:23.361Z,1.10
2022-11-09T01:50:58.710Z,1.70
2022-11-09T01:53:30.291Z,1.45
2022-11-09T01:56:02.132Z,1.50
2022-11-09T01:58:37.619Z,0.98
2022-11-09T02:01:05.644Z,1.50
2022-11-09T02:03:42.848Z,1.27
2022-11-09T02:06:12.143Z,1.30
2022-11-09T02:08:39.813Z,1.10
2022-11-09T02:11:11.472Z,1.20
2022-11-09T02:13:41.671Z,1.38
2022-11-09T02:16:10.558Z,1.13
2022-11-09T02:18:50.280Z,1.38
2022-11-09T02:21:16.816Z,1.27
2022-11-09T02:23:43.563Z,1.20
2022-11-09T02:26:15.714Z,1.15
2022-11-09T02:28:42.423Z,1.30
2022-11-09T02:31:11.969Z,1.25
2022-11-09T02:33:53.258Z,1.48
2022-11-09T02:36:20.136Z,1.30
2022-11-09T02:38:46.556Z,1.15
2022-11-09T02:41:13.339Z,1.30
2022-11-09T02:43:40.784Z,1.00
2022-11-09T02:46:07.193Z,1.27
2022-11-09T02:48:33.589Z,1.42
2022-11-09T02:51:00.057Z,1.30
2022-11-09T02:53:26.492Z,1.45
2022-11-09T02:55:52.892Z,1.10
2022-11-09T02:58:19.311Z,1.17
2022-11-09T03:00:45.941Z,1.50
2022-11-09T03:03:12.614Z,1.20
2022-11-09T03:05:39.067Z,1.38
2022-11-09T03:08:05.785Z,1.48
2022-11-09T03:10:32.174Z,1.50
2022-11-09T03:12:58.631Z,1.05
2022-11-09T03:15:25.215Z,1.13
2022-11-09T03:17:51.625Z,1.15
2022-11-09T03:20:18.142Z,1.33
2022-11-09T03:22:44.558Z,1.20
2022-11-09T03:25:11.025Z,1.27
2022-11-09T03:27:37.442Z,1.30
2022-11-09T03:30:04.257Z,1.30
2022-11-09T03:32:30.815Z,1.00
2022-11-09T03:34:57.262Z,1.33
2022-11-09T03:37:23.666Z,1.35
2022-11-09T03:39:50.225Z,1.20
2022-11-09T03:42:16.687Z,1.13
2022-11-09T03:44:43.070Z,1.13
2022-11-09T03:47:09.543Z,1.40
2022-11-09T03:49:36.009Z,1.30
2022-11-09T03:52:02.757Z,1.40
2022-11-09T03:54:29.166Z,1.50
2022-11-09T03:56:55.580Z,1.30
2022-11-09T03:59:22.026Z,1.40
2022-11-09T04:01:48.488Z,1.33
2022-11-09T04:04:14.949Z,1.20
2022-11-09T04:06:41.439Z,1.20
2022-11-09T04:09:08.016Z,1.20
2022-11-09T04:11:34.404Z,1.30
2022-11-09T04:14:00.950Z,1.50
2022-11-09T04:16:27.430Z,1.50
2022-11-09T04:18:53.892Z,1.45
2022-11-09T04:21:23.700Z,1.20
2022-11-09T04:23:50.751Z,1.20
2022-11-09T04:26:17.224Z,1.45
2022-11-09T04:28:43.696Z,1.23
2022-11-09T04:31:10.134Z,1.50
2022-11-09T04:33:36.566Z,1.42
2022-11-09T04:36:04.767Z,1.17
2022-11-09T04:38:31.486Z,1.15
2022-11-09T04:41:01.931Z,1.35
2022-11-09T04:43:29.220Z,1.40
2022-11-09T04:45:55.790Z,1.83
2022-11-09T04:48:22.270Z,1.40
2022-11-09T04:50:48.684Z,1.35
2022-11-09T04:53:15.714Z,1.70
2022-11-09T04:55:42.727Z,1.20
2022-11-09T04:58:09.936Z,1.55
2022-11-09T05:00:36.903Z,1.40
2022-11-09T05:03:05.041Z,1.55
2022-11-09T05:05:33.847Z,1.92
2022-11-09T05:08:00.338Z,1.23
2022-11-09T05:10:26.834Z,1.35
2022-11-09T05:13:19.556Z,1.35
2022-11-09T05:15:46.331Z,1.40
2022-11-09T05:18:12.765Z,1.65
2022-11-09T05:20:39.191Z,1.63
2022-11-09T05:23:28.194Z,1.65
2022-11-09T05:25:54.617Z,1.30
2022-11-09T05:28:21.041Z,1.50
2022-11-09T05:30:47.465Z,1.70
2022-11-09T05:33:14.772Z,1.30
2022-11-09T05:35:41.165Z,1.33
2022-11-09T05:38:07.562Z,1.50
2022-11-09T05:40:34.663Z,1.50
2022-11-09T05:43:01.233Z,1.40
2022-11-09T05:45:42.213Z,1.70
2022-11-09T05:48:11.151Z,1.50
2022-11-09T05:50:38.527Z,1.60
2022-11-09T05:53:05.394Z,1.50
2022-11-09T05:55:31.781Z,1.90
2022-11-09T05:57:58.361Z,1.60
2022-11-09T06:00:24.886Z,1.35
2022-11-09T06:02:51.361Z,1.40
2022-11-09T06:05:17.967Z,2.17
2022-11-09T06:07:44.364Z,1.55
2022-11-09T06:10:11.441Z,1.30
2022-11-09T06:12:38.207Z,1.30
2022-11-09T06:15:05.519Z,1.55
2022-11-09T06:17:31.983Z,1.60
2022-11-09T06:19:58.448Z,1.52
2022-11-09T06:22:24.847Z,1.70
2022-11-09T06:24:51.252Z,1.52
2022-11-09T06:27:17.662Z,1.35
2022-11-09T06:29:44.042Z,1.83
2022-11-09T06:32:10.493Z,1.63
2022-11-09T06:34:36.869Z,2.35
2022-11-09T06:37:03.264Z,1.52
2022-11-09T06:39:29.676Z,1.38
2022-11-09T06:41:56.122Z,1.75
2022-11-09T06:44:22.537Z,1.30
2022-11-09T06:46:48.963Z,1.63
2022-11-09T06:49:15.360Z,1.50
2022-11-09T06:51:41.758Z,1.30
2022-11-09T06:54:08.292Z,1.90
2022-11-09T06:56:34.809Z,1.60
2022-11-09T06:59:01.210Z,1.30
2022-11-09T07:01:29.096Z,1.48
2022-11-09T07:03:55.659Z,1.42
2022-11-09T07:06:22.622Z,1.67
2022-11-09T07:08:49.175Z,1.52
2022-11-09T07:11:16.311Z,1.60
2022-11-09T07:13:42.801Z,1.77
2022-11-09T07:16:11.918Z,1.52
2022-11-09T07:18:38.615Z,1.67
2022-11-09T07:21:08.868Z,1.58
2022-11-09T07:23:39.877Z,1.25
2022-11-09T07:26:06.572Z,1.50
2022-11-09T07:28:33.390Z,1.75
2022-11-09T07:31:00.005Z,1.13
2022-11-09T07:33:26.983Z,1.40
2022-11-09T07:35:53.673Z,1.90
2022-11-09T07:38:20.204Z,1.50
2022-11-09T07:40:47.042Z,1.40
2022-11-09T07:43:13.485Z,1.45
2022-11-09T07:45:40.586Z,1.38
2022-11-09T07:48:12.201Z,1.60
2022-11-09T07:50:40.126Z,1.70
2022-11-09T07:53:08.325Z,1.67
2022-11-09T07:55:35.896Z,1.90
2022-11-09T07:58:05.913Z,1.30
2022-11-09T08:00:34.363Z,1.42
2022-11-09T08:03:01.329Z,1.60
2022-11-09T08:05:28.263Z,1.50
2022-11-09T08:07:59.659Z,1.60
2022-11-09T08:10:27.631Z,1.40
2022-11-09T08:13:02.696Z,1.58
2022-11-09T08:15:29.710Z,1.77
2022-11-09T08:18:00.914Z,1.58
2022-11-09T08:20:27.417Z,1.70
2022-11-09T08:22:53.826Z,1.70
2022-11-09T08:25:20.313Z,1.95
2022-11-09T08:27:46.674Z,2.03
2022-11-09T08:30:17.403Z,1.80
2022-11-09T08:32:44.972Z,1.60
2022-11-09T08:35:16.818Z,1.70
2022-11-09T08:37:44.583Z,1.77
2022-11-09T08:40:11.171Z,1.65
2022-11-09T08:42:37.538Z,1.88
2022-11-09T08:45:04.806Z,1.77
2022-11-09T08:47:31.257Z,1.67
2022-11-09T08:49:57.637Z,1.85
2022-11-09T08:52:24.018Z,1.48
2022-11-09T08:54:50.385Z,1.65
2022-11-09T08:57:20.512Z,1.98
2022-11-09T08:59:47.103Z,1.50
2022-11-09T09:02:22.453Z,1.63
2022-11-09T09:04:48.865Z,1.70
2022-11-09T09:07:15.293Z,1.65
2022-11-09T09:09:41.673Z,1.70
2022-11-09T09:12:09.459Z,2.28
2022-11-09T09:14:36.201Z,1.42
2022-11-09T09:17:02.709Z,1.63
2022-11-09T09:19:29.223Z,1.48
2022-11-09T09:21:55.657Z,1.83
2022-11-09T09:24:22.115Z,1.60
2022-11-09T09:26:48.478Z,1.88
2022-11-09T09:29:14.947Z,1.95
2022-11-09T09:31:41.408Z,1.90
2022-11-09T09:34:07.941Z,1.85
2022-11-09T09:36:35.541Z,1.50
2022-11-09T09:39:02.206Z,2.28
2022-11-09T09:41:34.886Z,1.95
2022-11-09T09:44:26.964Z,2.08
2022-11-09T09:47:04.886Z,1.92
2022-11-09T09:49:36.427Z,2.00
2022-11-09T09:52:05.968Z,2.10
2022-11-09T09:54:40.562Z,2.40
2022-11-09T09:57:15.885Z,1.95
2022-11-09T09:59:44.738Z,2.00
2022-11-09T10:02:25.756Z,1.80
2022-11-09T10:04:55.146Z,1.98
2022-11-09T10:07:29.506Z,1.77
2022-11-09T10:10:33.443Z,1.85
2022-11-09T10:13:21.218Z,1.77
2022-11-09T10:16:04.735Z,1.83
2022-11-09T10:18:35.030Z,2.03
2022-11-09T10:21:22.826Z,1.65
2022-11-09T10:24:07.943Z,1.85
2022-11-09T10:26:41.193Z,1.70
2022-11-09T10:29:20.487Z,1.83
2022-11-09T10:31:48.759Z,1.70
2022-11-09T10:34:33.746Z,1.55
2022-11-09T10:37:10.026Z,2.00
2022-11-09T10:39:47.242Z,1.73
2022-11-09T10:42:13.619Z,2.00
2022-11-09T10:44:39.986Z,2.10
2022-11-09T10:47:08.591Z,2.05
2022-11-09T10:49:35.494Z,1.65
2022-11-09T10:52:02.017Z,1.90
2022-11-09T10:54:33.204Z,1.60
2022-11-09T10:57:22.916Z,1.85
2022-11-09T10:59:56.650Z,1.90
2022-11-09T11:02:29.723Z,1.90
2022-11-09T11:05:05.215Z,1.58
2022-11-09T11:07:32.438Z,1.95
2022-11-09T11:10:14.899Z,1.50
2022-11-09T11:12:42.537Z,1.75
2022-11-09T11:15:22.965Z,2.10
2022-11-09T11:17:49.841Z,1.65
2022-11-09T11:20:29.330Z,1.38
2022-11-09T11:23:21.099Z,1.60
2022-11-09T11:25:53.877Z,1.45
2022-11-09T11:28:29.145Z,1.65
2022-11-09T11:30:56.455Z,1.70
2022-11-09T11:33:23.465Z,1.33
2022-11-09T11:35:56.510Z,1.42
2022-11-09T11:38:40.986Z,1.70
2022-11-09T11:41:34.853Z,1.30
2022-11-09T11:44:23.019Z,1.85
2022-11-09T11:47:05.945Z,1.60
2022-11-09T11:49:47.852Z,1.33
2022-11-09T11:52:24.288Z,1.83
2022-11-09T11:55:00.841Z,1.60
2022-11-09T11:57:59.563Z,1.42
2022-11-09T12:00:26.225Z,1.25
2022-11-09T12:03:08.253Z,1.52
2022-11-09T12:06:02.430Z,1.40
2022-11-09T12:08:53.835Z,1.85
2022-11-09T12:11:35.982Z,1.58
2022-11-09T12:14:15.288Z,1.50
2022-11-09T12:17:08.203Z,1.60
2022-11-09T12:20:16.576Z,1.70
2022-11-09T12:23:00.980Z,1.40
2022-11-09T12:25:36.801Z,1.30
2022-11-09T12:28:24.545Z,1.15
2022-11-09T12:31:18.982Z,1.50
2022-11-09T12:33:49.904Z,1.65
2022-11-09T12:36:24.321Z,1.33
2022-11-09T12:39:01.960Z,1.38
2022-11-09T12:41:33.372Z,1.73
2022-11-09T12:44:27.185Z,1.55
2022-11-09T12:47:03.251Z,1.33
2022-11-09T12:49:41.478Z,1.88
2022-11-09T12:52:12.628Z,1.38
2022-11-09T12:54:43.911Z,1.67
2022-11-09T12:57:14.450Z,1.60
2022-11-09T12:59:50.209Z,1.60
2022-11-09T13:05:05.113Z,1.55
2022-11-09T13:07:38.391Z,1.15
2022-11-09T13:10:05.279Z,1.35
2022-11-09T13:12:40.066Z,1.58
2022-11-09T13:15:22.652Z,1.70
2022-11-09T13:17:57.425Z,1.10
2022-11-09T13:26:33.379Z,1.75
2022-11-09T13:29:15.137Z,1.70
2022-11-09T13:32:02.846Z,1.58
2022-11-09T13:34:46.043Z,1.33
2022-11-09T13:37:45.047Z,1.83
2022-11-09T13:40:31.690Z,1.30
2022-11-09T13:43:08.658Z,1.65
2022-11-09T13:45:51.617Z,1.23
2022-11-09T13:48:44.008Z,1.40
2022-11-09T13:51:21.013Z,1.33
2022-11-09T13:54:26.125Z,1.45
2022-11-09T13:56:53.161Z,1.10
2022-11-09T13:59:30.034Z,1.25
2022-11-09T14:01:59.077Z,1.48
2022-11-09T14:04:37.781Z,1.27
2022-11-09T14:07:07.165Z,1.42
2022-11-09T14:09:54.084Z,1.20
2022-11-09T14:12:42.203Z,1.42
2022-11-09T14:15:39.771Z,1.48
2022-11-09T14:18:45.858Z,1.30
2022-11-09T14:21:39.976Z,1.40
2022-11-09T14:24:19.511Z,1.60
2022-11-09T14:27:18.523Z,1.65
2022-11-09T14:29:53.155Z,1.40
2022-11-09T14:32:29.050Z,1.67
2022-11-09T14:35:11.824Z,1.27
2022-11-09T14:37:44.066Z,1.40
2022-11-09T14:40:19.876Z,1.33
2022-11-09T14:42:52.368Z,1.63
2022-11-09T14:45:31.095Z,1.20
2022-11-09T14:47:59.176Z,1.48
2022-11-09T14:50:37.497Z,1.50
2022-11-09T14:53:05.699Z,1.50
2022-11-09T14:55:34.232Z,1.13
2022-11-09T14:58:01.562Z,1.50
2022-11-09T15:00:33.095Z,1.33
2022-11-09T15:03:20.368Z,1.20
2022-11-09T15:05:46.786Z,1.35
2022-11-09T15:08:21.402Z,1.42
2022-11-09T15:10:53.087Z,1.33
2022-11-09T15:13:39.595Z,1.48
2022-11-09T15:16:06.903Z,1.60
2022-11-09T15:18:36.784Z,1.48
2022-11-09T15:21:14.373Z,1.42
2022-11-09T15:23:47.164Z,1.10
2022-11-09T15:26:36.513Z,1.30
2022-11-09T15:29:27.951Z,1.35
2022-11-09T15:32:10.830Z,1.10
2022-11-09T15:34:51.546Z,1.30
2022-11-09T15:37:31.984Z,1.75
2022-11-09T15:39:58.931Z,1.40
2022-11-09T15:42:27.039Z,1.65
2022-11-09T15:44:55.862Z,1.40
2022-11-09T15:47:37.666Z,1.67
2022-11-09T15:50:14.828Z,1.20
2022-11-09T15:52:44.258Z,1.30
2022-11-09T15:55:15.655Z,1.30
2022-11-09T15:57:43.198Z,1.60
2022-11-09T16:00:19.402Z,1.38
2022-11-09T16:02:47.290Z,1.45
2022-11-09T16:05:13.922Z,1.88
2022-11-09T16:07:51.158Z,1.38
2022-11-09T16:10:20.297Z,1.40
2022-11-09T16:12:47.378Z,1.45
2022-11-09T16:15:13.866Z,1.58
2022-11-09T16:17:40.222Z,1.55
2022-11-09T16:20:07.189Z,1.40
2022-11-09T16:22:33.954Z,1.50
2022-11-09T16:25:00.388Z,1.50
2022-11-09T16:30:23.011Z,1.38
2022-11-09T16:32:49.638Z,1.55
2022-11-09T16:35:26.621Z,1.40
2022-11-09T16:37:55.273Z,1.35
2022-11-09T16:40:22.342Z,1.27
2022-11-09T16:42:51.214Z,1.08
2022-11-09T16:45:17.719Z,1.17
2022-11-09T16:47:47.678Z,1.27
2022-11-09T16:50:14.489Z,1.50
2022-11-09T16:52:41.023Z,1.00
2022-11-09T16:55:09.322Z,1.25
2022-11-09T16:57:35.670Z,1.48
2022-11-09T17:00:02.259Z,0.90
2022-11-09T17:02:28.643Z,1.30
2022-11-09T17:04:54.995Z,1.15
2022-11-09T17:07:21.437Z,1.40
2022-11-09T17:09:47.820Z,1.60
2022-11-09T17:12:14.934Z,1.40
2022-11-09T17:14:41.792Z,1.20
2022-11-09T17:17:08.169Z,1.10
2022-11-09T17:19:35.946Z,1.20
2022-11-09T17:22:03.985Z,1.00
2022-11-09T17:24:30.537Z,1.40
2022-11-09T17:26:57.212Z,1.52
2022-11-09T17:29:24.560Z,1.20
2022-11-09T17:31:51.158Z,1.25
2022-11-09T17:34:17.563Z,1.23
2022-11-09T17:41:56.819Z,1.27
2022-11-09T17:44:23.186Z,1.27
2022-11-09T17:46:49.615Z,1.42
2022-11-09T17:49:16.153Z,1.67
2022-11-09T17:51:42.585Z,1.55
2022-11-09T17:54:08.943Z,1.15
2022-11-09T17:56:35.407Z,1.13
2022-11-09T17:59:04.558Z,1.40
2022-11-09T18:01:32.392Z,1.30
2022-11-09T18:04:05.528Z,1.35
2022-11-09T18:06:32.954Z,1.50
2022-11-09T18:09:27.167Z,1.70
2022-11-09T18:14:12.185Z,1.70
2022-11-09T18:16:38.525Z,1.88
2022-11-09T18:19:05.893Z,1.88
2022-11-09T18:21:33.440Z,1.30
2022-11-09T18:23:59.969Z,1.20
2022-11-09T18:26:26.434Z,1.40
2022-11-09T18:28:55.072Z,1.60
2022-11-09T18:31:21.389Z,1.45
2022-11-09T18:33:47.750Z,1.70
2022-11-09T18:36:16.826Z,1.48
2022-11-09T18:38:44.301Z,1.23
2022-11-09T18:41:12.239Z,1.92
2022-11-09T18:43:38.702Z,1.42
2022-11-09T18:46:09.734Z,1.63
2022-11-09T18:48:37.564Z,1.85
2022-11-09T18:51:08.223Z,1.60
2022-11-09T18:53:37.377Z,1.33
2022-11-09T18:56:07.186Z,1.60
2022-11-09T18:58:34.414Z,1.40
2022-11-09T19:01:03.898Z,1.30
2022-11-09T19:03:30.354Z,1.55
2022-11-09T19:05:56.814Z,1.45
2022-11-09T19:08:42.226Z,1.60
2022-11-09T19:11:13.484Z,1.98
2022-11-09T19:13:40.617Z,2.03
2022-11-09T19:16:09.945Z,1.50
2022-11-09T19:18:36.418Z,1.55
2022-11-09T19:21:03.373Z,1.50
2022-11-09T19:23:34.310Z,1.40
2022-11-09T19:26:01.954Z,1.65
2022-11-09T19:28:28.340Z,1.63
2022-11-09T19:30:54.663Z,1.73
2022-11-09T19:33:21.007Z,1.75
2022-11-09T19:36:15.165Z,1.33
2022-11-09T19:38:38.042Z,1.65
2022-11-09T19:41:04.485Z,1.52
2022-11-09T19:43:30.802Z,1.77
2022-11-09T19:45:57.156Z,1.45
2022-11-09T19:48:23.830Z,1.55
2022-11-09T19:50:52.055Z,1.85
2022-11-09T19:53:19.137Z,1.63
2022-11-09T19:55:45.733Z,2.00
2022-11-09T19:58:12.202Z,1.67
2022-11-09T20:00:38.590Z,1.67
2022-11-09T20:03:05.091Z,1.33
2022-11-09T20:05:34.719Z,1.88
2022-11-09T20:08:04.937Z,1.80
2022-11-09T20:10:31.586Z,1.52
2022-11-09T20:12:58.509Z,1.65
2022-11-09T20:15:24.833Z,2.10
2022-11-09T20:17:51.202Z,1.80
2022-11-09T20:20:17.682Z,1.63
2022-11-09T20:22:44.106Z,2.08
2022-11-09T20:25:10.607Z,2.00
2022-11-09T20:27:37.103Z,2.00
2022-11-09T20:30:04.398Z,1.80
2022-11-09T20:32:31.039Z,2.00
2022-11-09T20:34:57.383Z,1.98
2022-11-09T20:37:23.729Z,2.05
2022-11-09T20:39:50.083Z,2.00
2022-11-09T20:42:16.404Z,1.67
2022-11-09T20:44:42.739Z,2.10
2022-11-09T20:47:09.604Z,1.67
2022-11-09T20:49:35.927Z,1.73
2022-11-09T20:52:02.327Z,1.70
2022-11-09T20:54:28.660Z,1.90
2022-11-09T20:56:55.265Z,2.08
2022-11-09T20:59:21.590Z,2.08
2022-11-09T21:01:48.503Z,1.60
2022-11-09T21:04:15.026Z,2.10
2022-11-09T21:06:41.476Z,1.63
2022-11-09T21:09:08.021Z,1.60
2022-11-09T21:11:57.286Z,1.63
2022-11-09T21:14:23.890Z,1.80
2022-11-09T21:16:50.257Z,1.85
2022-11-09T21:19:16.578Z,1.77
2022-11-09T21:21:42.934Z,1.63
2022-11-09T21:24:42.022Z,1.60
2022-11-09T21:27:47.690Z,2.17
2022-11-09T21:30:15.007Z,1.85
2022-11-09T21:32:41.346Z,2.10
2022-11-09T21:35:08.233Z,2.10
2022-11-09T21:37:34.815Z,1.90
2022-11-09T21:40:01.163Z,2.25
2022-11-09T21:42:27.742Z,1.88
2022-11-09T21:44:54.122Z,1.90
2022-11-09T21:47:20.476Z,1.90
2022-11-09T21:49:46.864Z,2.08
2022-11-09T21:52:13.224Z,1.98
2022-11-09T21:54:40.496Z,2.08
2022-11-09T21:57:07.813Z,1.77
2022-11-09T21:59:34.162Z,2.05
2022-11-09T22:02:00.535Z,1.70
2022-11-09T22:04:26.939Z,1.90
2022-11-09T22:06:53.357Z,1.70
2022-11-09T22:09:19.809Z,2.03
2022-11-09T22:12:05.070Z,1.98
2022-11-09T22:14:50.718Z,1.90
2022-11-09T22:17:17.036Z,2.60
2022-11-09T22:20:02.585Z,1.85
2022-11-09T22:22:30.428Z,2.47
2022-11-09T22:24:57.109Z,2.10
2022-11-09T22:27:23.776Z,2.08
2022-11-09T22:29:50.286Z,1.85
2022-11-09T22:32:16.686Z,2.10
2022-11-09T22:34:44.641Z,2.13
2022-11-09T22:37:11.099Z,2.10
2022-11-09T22:39:39.031Z,2.03
2022-11-09T22:42:07.454Z,1.77
2022-11-09T22:44:33.774Z,1.83
2022-11-09T22:47:00.267Z,1.77
2022-11-09T22:49:26.715Z,2.22
2022-11-09T22:51:53.426Z,2.00
2022-11-09T22:54:23.002Z,2.30
2022-11-09T22:56:49.332Z,2.00
2022-11-09T22:59:15.765Z,2.28
2022-11-09T23:01:42.265Z,1.77
2022-11-09T23:04:09.829Z,2.00
2022-11-09T23:06:36.235Z,2.60
2022-11-09T23:09:02.722Z,2.25
2022-11-09T23:11:29.059Z,2.15
2022-11-09T23:13:55.855Z,2.08
2022-11-09T23:16:24.663Z,2.40
2022-11-09T23:18:54.540Z,2.30
2022-11-09T23:21:28.261Z,2.63
2022-11-09T23:23:57.383Z,2.45
2022-11-09T23:26:24.667Z,2.45
2022-11-09T23:28:51.087Z,2.30
2022-11-09T23:31:19.766Z,2.00
2022-11-09T23:33:54.384Z,1.85
2022-11-09T23:36:25.867Z,2.70
2022-11-09T23:38:52.292Z,2.05
2022-11-09T23:41:19.111Z,2.03
2022-11-09T23:43:49.296Z,2.15
2022-11-09T23:46:17.170Z,2.42
2022-11-09T23:48:43.722Z,2.33
2022-11-09T23:51:10.253Z,2.75
2022-11-09T23:53:36.973Z,2.53
2022-11-09T23:56:09.247Z,2.22
2022-11-09T23:58:36.421Z,2.35
